createdAt,value
2017-09-14T00:01:59.831Z,74.70
2017-09-14T00:04:27.300Z,74.50
2017-09-14T00:06:55.216Z,74.70
2017-09-14T00:09:22.556Z,74.70
2017-09-14T00:11:50.828Z,74.70
2017-09-14T00:14:19.978Z,75.70
2017-09-14T00:16:48.335Z,75.30
2017-09-14T00:19:14.799Z,75.40
2017-09-14T00:21:41.976Z,74.50
2017-09-14T00:24:08.335Z,74.50
2017-09-14T00:26:36.049Z,75.30
2017-09-14T00:29:02.992Z,75.20
2017-09-14T00:31:29.384Z,75.10
2017-09-14T00:33:56.784Z,75.00
2017-09-14T00:36:24.895Z,74.90
2017-09-14T00:38:52.344Z,74.80
2017-09-14T00:41:19.456Z,75.10
2017-09-14T00:43:47.896Z,74.30
2017-09-14T00:46:15.051Z,74.90
2017-09-14T00:48:41.855Z,74.70
2017-09-14T00:51:09.977Z,74.70
2017-09-14T00:53:37.234Z,74.60
2017-09-14T00:56:04.490Z,74.50
2017-09-14T00:58:31.415Z,75.00
2017-09-14T01:00:58.744Z,74.70
2017-09-14T01:03:26.532Z,74.40
2017-09-14T01:05:53.789Z,74.30
2017-09-14T01:08:20.332Z,74.20
2017-09-14T01:10:47.668Z,74.50
2017-09-14T01:13:15.788Z,75.20
2017-09-14T01:15:43.064Z,75.10
2017-09-14T01:18:10.260Z,75.10
2017-09-14T01:20:37.482Z,75.00
2017-09-14T01:23:03.890Z,75.00
2017-09-14T01:25:30.352Z,74.80
2017-09-14T01:27:57.408Z,74.80
2017-09-14T01:30:23.932Z,75.10
2017-09-14T01:32:50.911Z,74.70
2017-09-14T01:35:18.152Z,74.90
2017-09-14T01:37:45.512Z,75.10
2017-09-14T01:40:12.679Z,75.20
2017-09-14T01:42:39.824Z,75.10
2017-09-14T01:45:07.068Z,75.40
2017-09-14T01:47:34.226Z,75.30
2017-09-14T01:50:01.378Z,75.00
2017-09-14T01:52:28.546Z,74.90
2017-09-14T01:54:56.040Z,74.80
2017-09-14T01:57:23.064Z,74.90
2017-09-14T01:59:49.423Z,75.30
2017-09-14T02:02:16.949Z,75.00
2017-09-14T02:04:44.400Z,74.60
2017-09-14T02:07:11.887Z,74.10
2017-09-14T02:09:39.004Z,73.90
2017-09-14T02:12:06.090Z,73.80
2017-09-14T02:14:33.285Z,74.00
2017-09-14T02:17:00.391Z,73.80
2017-09-14T02:19:27.691Z,73.80
2017-09-14T02:21:54.056Z,73.90
2017-09-14T02:24:21.175Z,73.50
2017-09-14T02:26:47.584Z,73.50
2017-09-14T02:29:14.709Z,73.10
2017-09-14T02:31:41.912Z,73.00
2017-09-14T02:34:08.907Z,73.90
2017-09-14T02:36:37.738Z,73.40
2017-09-14T02:39:04.821Z,73.50
2017-09-14T02:41:32.671Z,73.50
2017-09-14T02:43:59.840Z,73.70
2017-09-14T02:46:26.208Z,73.40
2017-09-14T02:48:53.407Z,73.70
2017-09-14T02:51:20.691Z,73.70
2017-09-14T02:53:48.119Z,73.70
2017-09-14T02:56:15.005Z,73.40
2017-09-14T02:58:42.028Z,72.70
2017-09-14T03:01:08.432Z,72.00
2017-09-14T03:03:35.623Z,72.50
2017-09-14T03:06:02.776Z,72.40
2017-09-14T03:08:29.789Z,72.70
2017-09-14T03:10:57.855Z,72.30
2017-09-14T03:13:25.060Z,72.50
2017-09-14T03:15:51.439Z,72.50
2017-09-14T03:18:18.937Z,72.50
2017-09-14T03:20:45.399Z,72.40
2017-09-14T03:23:11.840Z,72.40
2017-09-14T03:25:38.339Z,72.50
2017-09-14T03:28:06.360Z,72.30
2017-09-14T03:30:32.721Z,72.20
2017-09-14T03:32:59.096Z,72.10
2017-09-14T03:35:26.284Z,72.60
2017-09-14T03:37:54.154Z,72.40
2017-09-14T03:40:20.511Z,72.70
2017-09-14T03:42:48.583Z,73.10
2017-09-14T03:45:15.085Z,73.00
2017-09-14T03:47:42.591Z,73.10
2017-09-14T03:50:09.777Z,73.00
2017-09-14T03:52:36.888Z,73.80
2017-09-14T03:55:04.331Z,73.00
2017-09-14T03:57:31.407Z,72.40
2017-09-14T03:59:58.808Z,72.80
2017-09-14T04:02:26.524Z,73.00
2017-09-14T04:04:53.732Z,72.20
2017-09-14T04:07:21.671Z,72.90
2017-09-14T04:09:48.072Z,72.10
2017-09-14T04:12:15.159Z,71.80
2017-09-14T04:14:42.248Z,71.90
2017-09-14T04:17:09.234Z,71.30
2017-09-14T04:19:36.405Z,71.60
2017-09-14T04:22:02.767Z,70.50
2017-09-14T04:24:30.098Z,70.70
2017-09-14T04:26:57.437Z,70.90
2017-09-14T04:29:24.596Z,71.50
2017-09-14T04:31:51.033Z,71.80
2017-09-14T04:34:17.391Z,71.80
2017-09-14T04:36:44.772Z,71.60
2017-09-14T04:39:11.128Z,71.50
2017-09-14T04:41:38.189Z,71.60
2017-09-14T04:44:04.564Z,71.20
2017-09-14T04:46:31.000Z,71.70
2017-09-14T04:48:57.978Z,73.00
2017-09-14T04:51:25.138Z,71.10
2017-09-14T04:53:52.228Z,71.20
2017-09-14T04:56:20.149Z,72.60
2017-09-14T04:58:47.381Z,71.60
2017-09-14T05:01:14.648Z,72.40
2017-09-14T05:03:41.077Z,72.50
2017-09-14T05:06:07.456Z,72.10
2017-09-14T05:08:33.894Z,71.90
2017-09-14T05:11:00.260Z,71.40
2017-09-14T05:13:26.858Z,71.30
2017-09-14T05:15:53.296Z,71.90
2017-09-14T05:18:19.662Z,71.50
2017-09-14T05:20:46.032Z,71.30
2017-09-14T05:23:14.148Z,71.50
2017-09-14T05:25:40.685Z,71.50
2017-09-14T05:28:07.698Z,71.40
2017-09-14T05:30:35.937Z,71.80
2017-09-14T05:33:02.459Z,71.80
2017-09-14T05:35:28.901Z,71.30
2017-09-14T05:37:57.181Z,71.00
2017-09-14T05:40:23.722Z,71.00
2017-09-14T05:42:51.364Z,71.50
2017-09-14T05:45:18.863Z,70.60
2017-09-14T05:47:45.914Z,70.00
2017-09-14T05:50:12.341Z,70.30
2017-09-14T05:52:39.312Z,70.10
2017-09-14T05:55:06.265Z,69.80
2017-09-14T05:57:33.624Z,69.40
2017-09-14T06:00:01.346Z,68.20
2017-09-14T06:02:27.810Z,67.80
2017-09-14T06:04:55.082Z,66.90
2017-09-14T06:07:22.447Z,67.00
2017-09-14T06:09:48.804Z,65.80
2017-09-14T06:12:15.255Z,65.70
2017-09-14T06:14:41.692Z,65.90
2017-09-14T06:17:08.233Z,65.20
2017-09-14T06:19:35.543Z,65.30
2017-09-14T06:22:02.085Z,65.40
2017-09-14T06:24:29.752Z,64.50
2017-09-14T06:26:56.901Z,64.80
2017-09-14T06:29:24.067Z,64.80
2017-09-14T06:31:50.504Z,63.70
2017-09-14T06:34:16.937Z,62.70
2017-09-14T06:36:44.002Z,61.90
2017-09-14T06:39:11.335Z,63.30
2017-09-14T06:41:38.635Z,63.30
2017-09-14T06:44:07.671Z,63.20
2017-09-14T06:46:34.800Z,61.80
2017-09-14T06:49:01.277Z,61.70
2017-09-14T06:51:28.972Z,63.30
2017-09-14T06:53:55.343Z,62.50
2017-09-14T06:56:23.704Z,63.50
2017-09-14T06:58:50.752Z,63.30
2017-09-14T07:01:17.253Z,62.00
2017-09-14T07:03:43.674Z,62.50
2017-09-14T07:06:10.130Z,63.60
2017-09-14T07:08:37.349Z,63.40
2017-09-14T07:11:04.570Z,63.20
2017-09-14T07:13:31.656Z,63.20
2017-09-14T07:15:58.054Z,62.60
2017-09-14T07:18:25.423Z,61.80
2017-09-14T07:20:52.680Z,61.00
2017-09-14T07:23:19.959Z,62.10
2017-09-14T07:25:46.480Z,61.00
2017-09-14T07:28:14.921Z,61.20
2017-09-14T07:30:42.041Z,61.90
2017-09-14T07:33:08.555Z,61.80
2017-09-14T07:35:34.992Z,61.20
2017-09-14T07:38:02.151Z,60.80
2017-09-14T07:40:29.329Z,61.70
2017-09-14T07:42:56.380Z,61.70
2017-09-14T07:45:23.796Z,61.70
2017-09-14T07:47:50.213Z,62.20
2017-09-14T07:50:17.400Z,61.10
2017-09-14T07:52:44.856Z,61.10
2017-09-14T07:55:12.119Z,60.30
2017-09-14T07:57:38.503Z,61.30
2017-09-14T08:00:04.924Z,60.90
2017-09-14T08:02:31.360Z,60.20
2017-09-14T08:04:57.750Z,59.70
2017-09-14T08:07:25.040Z,60.50
2017-09-14T08:09:51.512Z,60.50
2017-09-14T08:12:18.641Z,60.90
2017-09-14T08:14:46.304Z,59.30
2017-09-14T08:17:12.727Z,59.40
2017-09-14T08:19:41.041Z,59.60
2017-09-14T08:22:07.568Z,60.00
2017-09-14T08:24:34.327Z,59.30
2017-09-14T08:27:01.731Z,60.30
2017-09-14T08:29:29.526Z,59.40
2017-09-14T08:31:55.980Z,59.40
2017-09-14T08:34:22.479Z,58.80
2017-09-14T08:36:50.996Z,58.50
2017-09-14T08:39:18.446Z,58.50
2017-09-14T08:41:45.500Z,59.90
2017-09-14T08:44:12.605Z,57.40
2017-09-14T08:46:38.948Z,57.40
2017-09-14T08:49:05.452Z,57.70
2017-09-14T08:51:32.512Z,58.20
2017-09-14T08:53:59.734Z,57.90
2017-09-14T08:56:26.874Z,57.80
2017-09-14T08:58:53.259Z,57.80
2017-09-14T09:01:19.660Z,56.40
2017-09-14T09:03:46.730Z,56.30
2017-09-14T09:06:13.674Z,56.20
2017-09-14T09:08:40.500Z,56.80
2017-09-14T09:11:06.852Z,56.30
2017-09-14T09:13:34.574Z,54.70
2017-09-14T09:16:00.908Z,54.60
2017-09-14T09:18:27.704Z,55.30
2017-09-14T09:20:56.012Z,53.60
2017-09-14T09:23:23.230Z,53.50
2017-09-14T09:25:51.244Z,55.20
2017-09-14T09:28:18.418Z,55.00
2017-09-14T09:30:44.784Z,55.60
2017-09-14T09:33:11.163Z,54.40
2017-09-14T09:35:38.274Z,54.60
2017-09-14T09:38:05.385Z,53.90
2017-09-14T09:40:31.795Z,53.60
2017-09-14T09:42:59.896Z,54.40
2017-09-14T09:45:26.918Z,54.40
2017-09-14T09:47:54.930Z,53.30
2017-09-14T09:50:21.266Z,53.20
2017-09-14T09:52:48.674Z,53.20
2017-09-14T09:55:16.464Z,51.50
2017-09-14T09:57:43.632Z,51.60
2017-09-14T10:00:10.610Z,51.40
2017-09-14T10:02:37.065Z,51.60
2017-09-14T10:05:03.481Z,51.40
2017-09-14T10:07:29.985Z,49.70
2017-09-14T10:09:57.832Z,51.20
2017-09-14T10:12:25.172Z,48.20
2017-09-14T10:14:52.516Z,48.30
2017-09-14T10:17:19.295Z,49.10
2017-09-14T10:19:47.239Z,49.70
2017-09-14T10:22:13.626Z,49.70
2017-09-14T10:24:40.892Z,48.70
2017-09-14T10:27:08.070Z,50.10
2017-09-14T10:29:35.777Z,50.00
2017-09-14T10:32:02.200Z,50.40
2017-09-14T10:34:29.355Z,50.60
2017-09-14T10:36:56.533Z,51.30
2017-09-14T10:39:23.841Z,49.90
2017-09-14T10:41:50.852Z,49.70
2017-09-14T10:44:17.942Z,49.90
2017-09-14T10:46:44.973Z,49.70
2017-09-14T10:49:12.937Z,47.60
2017-09-14T10:51:40.061Z,47.70
2017-09-14T10:54:06.442Z,47.60
2017-09-14T10:56:33.625Z,47.70
2017-09-14T10:59:00.688Z,47.70
2017-09-14T11:01:27.120Z,47.10
2017-09-14T11:03:53.557Z,46.40
2017-09-14T11:06:19.986Z,46.40
2017-09-14T11:08:47.868Z,52.40
2017-09-14T11:11:14.221Z,55.00
2017-09-14T11:13:41.852Z,56.80
2017-09-14T11:16:09.341Z,57.90
2017-09-14T11:18:35.785Z,58.00
2017-09-14T11:21:02.194Z,58.40
2017-09-14T11:23:29.528Z,58.90
2017-09-14T11:25:56.096Z,58.20
2017-09-14T11:28:22.513Z,58.40
2017-09-14T11:30:49.701Z,58.30
2017-09-14T11:33:16.100Z,58.30
2017-09-14T11:35:44.269Z,57.00
2017-09-14T11:38:21.424Z,57.00
2017-09-14T11:40:48.699Z,56.90
2017-09-14T11:43:16.535Z,58.30
2017-09-14T11:45:42.920Z,58.30
2017-09-14T11:48:10.116Z,59.40
2017-09-14T11:50:36.680Z,59.30
2017-09-14T11:53:03.157Z,58.70
2017-09-14T11:55:29.749Z,58.50
2017-09-14T11:57:56.820Z,58.20
2017-09-14T12:00:23.280Z,59.20
2017-09-14T12:02:49.728Z,60.10
2017-09-14T12:05:16.248Z,60.30
2017-09-14T12:07:42.791Z,60.60
2017-09-14T12:10:09.922Z,60.60
2017-09-14T12:12:36.464Z,61.30
2017-09-14T12:15:03.714Z,61.20
2017-09-14T12:17:30.573Z,61.60
2017-09-14T12:19:56.985Z,61.60
2017-09-14T12:22:24.096Z,62.40
2017-09-14T12:24:51.189Z,62.80
2017-09-14T12:27:17.740Z,62.40
2017-09-14T12:29:44.924Z,62.20
2017-09-14T12:32:12.105Z,61.80
2017-09-14T12:34:39.173Z,61.80
2017-09-14T12:37:06.589Z,64.10
2017-09-14T12:39:33.731Z,66.60
2017-09-14T12:42:00.891Z,67.90
2017-09-14T12:44:27.240Z,69.80
2017-09-14T12:46:55.007Z,72.50
2017-09-14T12:49:22.262Z,74.90
2017-09-14T12:51:49.825Z,75.40
2017-09-14T12:54:16.720Z,78.70
2017-09-14T12:56:45.876Z,81.20
2017-09-14T12:59:13.232Z,80.10
2017-09-14T13:01:40.594Z,81.50
2017-09-14T13:04:07.315Z,82.60
2017-09-14T13:06:33.989Z,82.30
2017-09-14T13:09:02.065Z,82.60
2017-09-14T13:11:28.404Z,83.30
2017-09-14T13:13:54.840Z,84.00
2017-09-14T13:16:21.893Z,82.00
2017-09-14T13:18:48.266Z,82.10
2017-09-14T13:21:15.686Z,81.90
2017-09-14T13:23:42.258Z,83.00
2017-09-14T13:26:08.653Z,82.70
2017-09-14T13:28:35.066Z,84.30
2017-09-14T13:31:02.165Z,83.70
2017-09-14T13:33:28.608Z,83.70
2017-09-14T13:35:55.627Z,85.40
2017-09-14T13:38:23.004Z,87.00
2017-09-14T13:40:49.411Z,86.10
2017-09-14T13:43:16.827Z,86.90
2017-09-14T13:45:43.208Z,85.90
2017-09-14T13:48:10.443Z,87.70
2017-09-14T13:50:37.544Z,87.40
2017-09-14T13:53:03.918Z,87.10
2017-09-14T13:55:31.038Z,88.10
2017-09-14T13:57:57.534Z,87.40
2017-09-14T14:00:24.621Z,89.70
2017-09-14T14:02:52.313Z,89.80
2017-09-14T14:05:19.683Z,88.60
2017-09-14T14:07:46.019Z,88.00
2017-09-14T14:10:12.389Z,89.60
2017-09-14T14:12:38.821Z,88.70
2017-09-14T14:15:05.212Z,90.70
2017-09-14T14:17:31.699Z,89.70
2017-09-14T14:19:58.736Z,88.30
2017-09-14T14:22:25.356Z,89.20
2017-09-14T14:24:51.996Z,89.40
2017-09-14T14:27:18.747Z,88.70
2017-09-14T14:29:48.152Z,89.40
2017-09-14T14:32:14.691Z,89.50
2017-09-14T14:34:41.845Z,89.60
2017-09-14T14:37:09.302Z,90.40
2017-09-14T14:39:36.774Z,89.60
2017-09-14T14:42:04.230Z,88.30
2017-09-14T14:44:30.768Z,90.00
2017-09-14T14:46:57.314Z,88.60
2017-09-14T14:49:24.879Z,90.00
2017-09-14T14:51:51.419Z,89.80
2017-09-14T14:54:18.164Z,90.10
2017-09-14T14:56:44.798Z,90.00
2017-09-14T14:59:12.068Z,88.40
2017-09-14T15:01:39.415Z,89.00
2017-09-14T15:04:06.884Z,90.40
2017-09-14T15:06:33.426Z,89.20
2017-09-14T15:08:59.972Z,88.00
2017-09-14T15:11:27.945Z,88.00
2017-09-14T15:13:54.480Z,89.60
2017-09-14T15:16:21.949Z,88.50
2017-09-14T15:18:49.306Z,89.30
2017-09-14T15:21:16.052Z,89.60
2017-09-14T15:23:43.860Z,89.10
2017-09-14T15:26:10.460Z,89.00
2017-09-14T15:28:37.719Z,88.50
2017-09-14T15:31:06.002Z,88.30
2017-09-14T15:33:33.565Z,87.10
2017-09-14T15:36:00.925Z,89.10
2017-09-14T15:38:34.831Z,87.90
2017-09-14T15:41:09.133Z,89.20
2017-09-14T15:43:43.471Z,89.30
2017-09-14T15:46:11.243Z,88.90
2017-09-14T15:48:45.200Z,86.90
2017-09-14T15:51:18.752Z,87.00
2017-09-14T15:53:46.112Z,87.00
2017-09-14T15:56:13.574Z,86.60
2017-09-14T15:58:40.114Z,86.50
2017-09-14T16:01:07.475Z,87.50
2017-09-14T16:03:34.123Z,86.90
2017-09-14T16:06:00.666Z,86.60
2017-09-14T16:08:28.473Z,87.50
2017-09-14T16:10:55.686Z,86.50
2017-09-14T16:13:22.840Z,85.20
2017-09-14T16:15:51.078Z,86.20
2017-09-14T16:18:19.198Z,88.30
2017-09-14T16:20:45.731Z,88.30
2017-09-14T16:23:12.385Z,87.50
2017-09-14T16:25:39.027Z,88.30
2017-09-14T16:28:06.590Z,87.90
2017-09-14T16:30:34.258Z,88.90
2017-09-14T16:33:01.907Z,88.00
2017-09-14T16:35:30.863Z,87.30
2017-09-14T16:37:59.098Z,87.80
2017-09-14T16:40:26.458Z,87.80
2017-09-14T16:42:53.924Z,89.00
2017-09-14T16:45:20.566Z,89.50
2017-09-14T16:47:47.931Z,88.60
2017-09-14T16:50:14.680Z,87.60
2017-09-14T16:52:41.310Z,86.20
2017-09-14T16:55:08.777Z,85.40
2017-09-14T16:57:37.159Z,86.00
2017-09-14T17:00:04.924Z,85.10
2017-09-14T17:02:31.465Z,80.00
2017-09-14T17:04:59.134Z,80.00
2017-09-14T17:07:25.676Z,78.70
2017-09-14T17:09:52.317Z,77.80
2017-09-14T17:12:18.948Z,75.00
2017-09-14T17:14:46.512Z,77.20
2017-09-14T17:17:13.787Z,71.70
2017-09-14T17:19:40.325Z,73.50
2017-09-14T17:22:06.867Z,72.50
2017-09-14T17:24:34.635Z,75.40
2017-09-14T17:27:01.167Z,74.70
2017-09-14T17:29:28.742Z,63.80
2017-09-14T17:31:55.272Z,69.50
2017-09-14T17:34:21.824Z,67.60
2017-09-14T17:36:49.491Z,72.00
2017-09-14T17:39:16.744Z,69.90
2017-09-14T17:41:48.452Z,70.50
2017-09-14T17:44:16.193Z,71.80
2017-09-14T17:46:42.935Z,67.70
2017-09-14T17:49:10.484Z,64.50
2017-09-14T17:51:37.946Z,63.00
2017-09-14T17:54:05.718Z,66.60
2017-09-14T17:56:33.483Z,71.80
2017-09-14T17:59:00.026Z,75.50
2017-09-14T18:01:26.670Z,74.10
2017-09-14T18:03:53.296Z,76.70
2017-09-14T18:06:19.856Z,77.50
2017-09-14T18:08:47.420Z,79.50
2017-09-14T18:11:14.976Z,80.40
2017-09-14T18:13:42.239Z,81.90
2017-09-14T18:16:09.292Z,82.70
2017-09-14T18:18:35.835Z,84.60
2017-09-14T18:21:03.640Z,82.50
2017-09-14T18:23:31.475Z,83.20
2017-09-14T18:25:59.755Z,83.40
2017-09-14T18:28:27.040Z,82.90
2017-09-14T18:30:53.656Z,83.00
2017-09-14T18:33:20.741Z,82.10
2017-09-14T18:35:48.891Z,82.20
2017-09-14T18:38:16.348Z,82.20
2017-09-14T18:40:43.612Z,82.60
2017-09-14T18:43:11.069Z,82.20
2017-09-14T18:45:37.712Z,82.50
2017-09-14T18:48:04.356Z,82.70
2017-09-14T18:50:31.113Z,84.00
2017-09-14T18:52:58.358Z,84.20
2017-09-14T18:55:25.617Z,84.80
2017-09-14T18:57:53.590Z,83.40
2017-09-14T19:00:20.131Z,84.40
2017-09-14T19:02:46.667Z,83.60
2017-09-14T19:05:13.421Z,84.00
2017-09-14T19:07:40.063Z,83.70
2017-09-14T19:10:06.807Z,83.30
2017-09-14T19:12:33.452Z,83.90
2017-09-14T19:14:59.988Z,84.30
2017-09-14T19:17:26.516Z,83.40
2017-09-14T19:19:53.176Z,82.50
2017-09-14T19:22:20.128Z,82.50
2017-09-14T19:24:47.691Z,81.70
2017-09-14T19:27:14.436Z,82.00
2017-09-14T19:29:42.388Z,83.10
2017-09-14T19:32:11.108Z,82.70
2017-09-14T19:34:37.744Z,83.80
2017-09-14T19:37:05.303Z,84.40
2017-09-14T19:39:32.776Z,83.90
2017-09-14T19:42:00.641Z,83.00
2017-09-14T19:44:27.886Z,82.80
2017-09-14T19:46:54.950Z,82.90
2017-09-14T19:49:22.319Z,82.60
2017-09-14T19:51:50.182Z,82.00
2017-09-14T19:54:17.542Z,82.20
2017-09-14T19:56:44.083Z,82.60
2017-09-14T19:59:10.625Z,83.50
2017-09-14T20:01:37.251Z,83.50
2017-09-14T20:04:04.625Z,82.70
2017-09-14T20:06:31.885Z,82.40
2017-09-14T20:08:58.532Z,82.40
2017-09-14T20:11:25.603Z,82.20
2017-09-14T20:13:52.232Z,82.50
2017-09-14T20:16:18.852Z,82.80
2017-09-14T20:18:46.019Z,82.60
2017-09-14T20:21:14.660Z,82.40
2017-09-14T20:23:42.995Z,81.40
2017-09-14T20:26:10.248Z,81.40
2017-09-14T20:28:38.225Z,81.20
2017-09-14T20:31:05.483Z,81.50
2017-09-14T20:33:33.151Z,80.70
2017-09-14T20:36:00.600Z,81.00
2017-09-14T20:38:29.092Z,80.70
2017-09-14T20:40:55.743Z,80.80
2017-09-14T20:43:23.094Z,80.70
2017-09-14T20:45:49.620Z,80.40
2017-09-14T20:48:16.182Z,80.00
2017-09-14T20:50:43.747Z,80.20
2017-09-14T20:53:10.737Z,80.60
2017-09-14T20:55:38.043Z,81.20
2017-09-14T20:58:04.598Z,81.20
2017-09-14T21:00:31.140Z,81.10
2017-09-14T21:02:58.392Z,81.50
2017-09-14T21:05:24.940Z,81.30
2017-09-14T21:07:51.477Z,81.40
2017-09-14T21:10:18.123Z,81.30
2017-09-14T21:12:46.318Z,81.60
2017-09-14T21:15:13.651Z,82.20
2017-09-14T21:17:40.199Z,82.20
2017-09-14T21:20:07.971Z,81.60
2017-09-14T21:22:34.511Z,82.00
2017-09-14T21:25:01.156Z,82.00
2017-09-14T21:27:29.184Z,81.80
2017-09-14T21:29:58.328Z,84.10
2017-09-14T21:32:25.072Z,84.10
2017-09-14T21:34:51.931Z,83.20
2017-09-14T21:37:20.820Z,84.40
2017-09-14T21:39:48.382Z,84.40
2017-09-14T21:42:15.739Z,84.50
2017-09-14T21:44:43.526Z,83.40
2017-09-14T21:47:10.975Z,83.50
2017-09-14T21:49:38.816Z,83.60
2017-09-14T21:52:06.099Z,83.30
2017-09-14T21:54:33.564Z,83.50
2017-09-14T21:57:00.091Z,83.70
2017-09-14T21:59:27.709Z,83.40
2017-09-14T22:01:54.928Z,84.20
2017-09-14T22:04:22.204Z,85.50
2017-09-14T22:06:48.694Z,84.90
2017-09-14T22:09:15.252Z,84.80
2017-09-14T22:11:41.809Z,84.20
2017-09-14T22:14:08.452Z,85.10
2017-09-14T22:16:36.019Z,85.50
2017-09-14T22:19:03.889Z,86.90
2017-09-14T22:21:31.145Z,86.70
2017-09-14T22:23:57.686Z,88.20
2017-09-14T22:26:24.227Z,86.50
2017-09-14T22:28:52.096Z,85.80
2017-09-14T22:31:18.641Z,86.70
2017-09-14T22:33:45.180Z,86.20
2017-09-14T22:36:12.638Z,86.80
2017-09-14T22:38:40.004Z,86.60
2017-09-14T22:41:06.544Z,86.00
2017-09-14T22:43:34.926Z,87.80
2017-09-14T22:46:03.523Z,86.70
2017-09-14T22:48:30.159Z,86.80
2017-09-14T22:50:56.675Z,87.70
2017-09-14T22:53:23.855Z,86.70
2017-09-14T22:55:50.905Z,86.70
2017-09-14T22:58:18.348Z,88.40
2017-09-14T23:00:45.812Z,87.30
2017-09-14T23:03:12.374Z,90.00
2017-09-14T23:05:39.630Z,88.00
2017-09-14T23:08:06.708Z,87.70
2017-09-14T23:10:33.224Z,88.10
2017-09-14T23:12:59.969Z,88.40
2017-09-14T23:15:27.432Z,87.40
2017-09-14T23:17:54.077Z,86.30
2017-09-14T23:20:20.611Z,88.10
2017-09-14T23:22:47.263Z,88.30
2017-09-14T23:25:13.800Z,88.00
2017-09-14T23:27:41.262Z,89.70
2017-09-14T23:30:07.798Z,90.00
2017-09-14T23:32:35.164Z,89.60
2017-09-14T23:35:02.217Z,89.40
2017-09-14T23:37:29.979Z,89.20
2017-09-14T23:39:57.551Z,89.90
2017-09-14T23:42:24.911Z,89.30
2017-09-14T23:44:52.059Z,89.40
2017-09-14T23:47:18.604Z,89.60
2017-09-14T23:49:45.147Z,90.10
2017-09-14T23:52:11.684Z,89.10
2017-09-14T23:54:38.233Z,89.70
2017-09-14T23:57:05.774Z,88.60
2017-09-14T23:59:33.664Z,88.70
